Time;durP1;ratioP1;P1;durP2;ratioP2;P2;SDS_P1;SDS_P2;PMS_P1;PMS_P2;Temp;Humidity;BMP_temperature;BMP_pressure;BME280_temperature;BME280_humidity;BME280_pressure;Samples;Min_cycle;Max_cycle;Signal;HPM_P1;HPM_P2
2023/05/16 00:01:00;;;;;;;1.15;0.50;;;;;;;21.80;50.55;101616.47;5070414;28;20385;-51
2023/05/16 00:03:26;;;;;;;0.65;0.30;;;;;;;21.85;50.38;101620.06;5067530;28;20036;-47
2023/05/16 00:05:53;;;;;;;2.60;0.45;;;;;;;21.44;51.49;101615.41;5051498;28;20079;-47
2023/05/16 00:08:19;;;;;;;3.13;0.40;;;;;;;21.21;52.17;101616.50;5051716;28;20029;-45
2023/05/16 00:10:45;;;;;;;0.90;0.40;;;;;;;21.09;52.44;101613.94;5051359;28;20025;-47
2023/05/16 00:13:12;;;;;;;1.42;0.30;;;;;;;21.15;52.32;101614.81;5059697;28;20078;-46
2023/05/16 00:15:38;;;;;;;1.55;0.50;;;;;;;20.90;53.42;101613.50;5060921;28;20393;-45
2023/05/16 00:18:05;;;;;;;1.20;0.55;;;;;;;20.72;53.46;101609.22;5057225;28;20021;-45
2023/05/16 00:20:31;;;;;;;1.08;0.40;;;;;;;20.88;54.47;101610.22;5067139;28;20021;-45
2023/05/16 00:23:00;;;;;;;0.93;0.50;;;;;;;20.93;53.63;101612.13;5084006;28;20028;-45
2023/05/16 00:25:27;;;;;;;1.63;0.52;;;;;;;20.25;54.91;101620.56;5076160;28;20033;-48
2023/05/16 00:27:53;;;;;;;2.50;0.70;;;;;;;20.06;55.67;101624.66;5062027;28;20025;-46
2023/05/16 00:30:20;;;;;;;0.52;0.40;;;;;;;19.60;56.17;101626.69;5071329;28;20032;-48
2023/05/16 00:32:46;;;;;;;2.78;0.55;;;;;;;19.84;56.79;101626.50;5067678;28;20115;-45
2023/05/16 00:35:13;;;;;;;1.80;0.38;;;;;;;19.69;56.94;101622.47;5075246;28;20060;-54
2023/05/16 00:37:40;;;;;;;2.08;0.60;;;;;;;19.81;56.58;101610.69;5075555;28;20048;-43
2023/05/16 00:40:07;;;;;;;1.67;0.52;;;;;;;19.40;57.83;101613.56;5063318;28;20044;-45
2023/05/16 00:42:33;;;;;;;1.00;0.50;;;;;;;19.32;58.27;101613.97;5075761;28;20064;-45
2023/05/16 00:44:59;;;;;;;2.30;0.70;;;;;;;19.50;57.85;101611.00;5058539;28;20021;-45
2023/05/16 00:47:26;;;;;;;1.45;0.50;;;;;;;19.41;58.62;101608.94;5054918;28;20067;-45
2023/05/16 00:49:52;;;;;;;2.55;0.68;;;;;;;19.43;58.73;101614.94;5054427;28;20028;-45
2023/05/16 00:52:19;;;;;;;1.27;0.70;;;;;;;19.39;58.85;101603.78;5041537;28;20045;-44
2023/05/16 00:54:45;;;;;;;1.20;0.70;;;;;;;19.23;59.35;101610.81;5036226;28;20033;-47
2023/05/16 00:57:11;;;;;;;3.15;0.50;;;;;;;19.46;60.33;101611.75;5017166;28;20385;-45
2023/05/16 00:59:39;;;;;;;1.80;0.70;;;;;;;19.16;59.01;101607.44;5034516;28;20382;-47
2023/05/16 01:02:05;;;;;;;1.40;0.50;;;;;;;19.03;60.42;101607.75;5053288;28;20116;-45
2023/05/16 01:04:32;;;;;;;1.75;0.68;;;;;;;19.13;60.53;101607.94;5053947;28;20025;-45
2023/05/16 01:06:59;;;;;;;2.28;0.70;;;;;;;18.78;60.93;101610.00;5054411;28;20056;-45
2023/05/16 01:09:25;;;;;;;2.60;0.80;;;;;;;18.65;61.55;101594.78;5054090;28;20059;-47
2023/05/16 01:12:10;;;;;;;1.60;0.60;;;;;;;18.75;61.93;101605.03;5052362;28;20115;-45
2023/05/16 01:15:08;;;;;;;3.13;0.70;;;;;;;18.97;60.69;101595.97;5074887;28;20029;-46
2023/05/16 01:17:45;;;;;;;1.83;0.65;;;;;;;18.55;60.85;101600.03;5035031;28;20036;-45
2023/05/16 01:20:33;;;;;;;1.80;0.60;;;;;;;18.67;61.32;101606.22;5043217;28;20400;-45
2023/05/16 01:23:04;;;;;;;1.42;0.70;;;;;;;18.58;62.22;101589.50;5047876;28;20067;-43
2023/05/16 01:25:35;;;;;;;1.48;0.70;;;;;;;18.44;62.60;101590.84;5036829;28;20052;-47
2023/05/16 01:28:02;;;;;;;0.95;0.50;;;;;;;18.56;62.68;101588.94;5048799;28;20034;-43
2023/05/16 01:30:34;;;;;;;2.28;0.60;;;;;;;18.43;62.93;101591.91;5053842;28;20029;-45
2023/05/16 01:33:01;;;;;;;1.80;0.70;;;;;;;18.23;63.05;101586.91;5054263;28;20036;-44
2023/05/16 01:35:27;;;;;;;3.05;0.50;;;;;;;18.45;64.48;101589.78;5047755;28;20057;-49
2023/05/16 01:38:10;;;;;;;1.83;0.55;;;;;;;18.38;62.33;101586.41;5037165;28;20033;-49
2023/05/16 01:41:20;;;;;;;1.00;0.50;;;;;;;18.13;63.99;101586.66;5036879;28;20111;-48
2023/05/16 01:43:51;;;;;;;3.45;0.70;;;;;;;18.11;64.42;101592.34;5043382;28;20056;-51
2023/05/16 01:46:32;;;;;;;4.65;0.75;;;;;;;17.79;65.20;101583.75;5046458;28;20473;-48
2023/05/16 01:49:16;;;;;;;1.48;0.60;;;;;;;17.37;66.19;101585.69;5054448;28;20042;-49
2023/05/16 01:51:49;;;;;;;1.63;0.60;;;;;;;17.44;67.09;101581.00;5034830;28;20037;-51
2023/05/16 01:54:18;;;;;;;1.30;0.52;;;;;;;17.75;65.87;101576.34;5034406;28;20057;-51
2023/05/16 01:56:53;;;;;;;0.70;0.40;;;;;;;17.77;65.71;101587.78;5036812;28;20554;-49
2023/05/16 01:59:24;;;;;;;1.13;0.60;;;;;;;17.68;66.03;101587.25;5054346;28;20064;-50
2023/05/16 02:01:54;;;;;;;0.90;0.60;;;;;;;17.77;65.05;101580.47;5052356;28;20079;-49
2023/05/16 02:04:21;;;;;;;2.05;0.60;;;;;;;17.61;65.41;101587.38;5044310;28;20040;-50
2023/05/16 02:06:47;;;;;;;2.03;0.60;;;;;;;17.63;66.10;101582.53;5034150;28;20052;-49
2023/05/16 02:09:13;;;;;;;0.88;0.63;;;;;;;17.85;65.34;101580.09;5050594;28;20477;-48
2023/05/16 02:11:40;;;;;;;3.03;0.60;;;;;;;18.02;64.39;101577.50;5054229;28;20025;-50
2023/05/16 02:14:06;;;;;;;2.28;0.60;;;;;;;17.81;65.41;101578.91;5054044;28;20032;-53
2023/05/16 02:16:33;;;;;;;1.73;0.50;;;;;;;18.10;63.85;101585.28;5053898;28;20029;-51
2023/05/16 02:18:59;;;;;;;0.98;0.40;;;;;;;18.29;63.18;101582.41;5039181;28;20025;-52
2023/05/16 02:21:26;;;;;;;2.17;0.50;;;;;;;18.48;62.58;101592.81;5043306;28;20106;-49
2023/05/16 02:23:52;;;;;;;1.10;0.40;;;;;;;18.48;62.64;101592.00;5053358;28;20036;-50
2023/05/16 02:26:18;;;;;;;2.65;0.75;;;;;;;18.76;62.00;101590.41;5051935;28;20500;-49
2023/05/16 02:28:44;;;;;;;3.45;0.93;;;;;;;18.66;62.15;101591.03;5040896;28;20060;-51
2023/05/16 02:31:11;;;;;;;1.77;0.70;;;;;;;18.57;62.50;101589.75;5053106;28;20032;-49
2023/05/16 02:33:37;;;;;;;1.85;0.68;;;;;;;18.27;62.88;101589.97;5042256;28;20029;-52
2023/05/16 02:36:03;;;;;;;1.40;0.50;;;;;;;18.32;62.08;101593.59;5046108;28;20030;-51
2023/05/16 02:38:30;;;;;;;1.65;0.82;;;;;;;18.43;62.70;101600.03;5035920;28;20032;-52
2023/05/16 02:40:56;;;;;;;2.97;1.05;;;;;;;17.73;64.34;101605.53;5042050;28;20485;-51
2023/05/16 02:43:22;;;;;;;2.05;0.75;;;;;;;17.51;65.40;101608.78;5034767;28;20037;-51
2023/05/16 02:45:48;;;;;;;2.38;0.60;;;;;;;17.41;66.16;101597.69;5048468;28;20031;-52
2023/05/16 02:48:14;;;;;;;2.20;0.50;;;;;;;16.85;67.53;101605.19;5045228;28;20041;-48
2023/05/16 02:50:41;;;;;;;2.13;0.80;;;;;;;16.60;68.79;101602.59;5050618;28;20442;-49
2023/05/16 02:53:07;;;;;;;2.45;0.95;;;;;;;16.13;70.70;101606.88;5052796;28;20043;-51
2023/05/16 02:55:33;;;;;;;3.28;0.90;;;;;;;16.16;70.98;101609.13;5053036;28;20092;-48
2023/05/16 02:58:00;;;;;;;5.68;1.33;;;;;;;16.26;70.65;101612.09;5052628;28;20434;-50
2023/05/16 03:00:26;;;;;;;6.78;0.95;;;;;;;16.10;71.75;101610.84;5040779;28;20024;-48
2023/05/16 03:02:52;;;;;;;1.35;1.05;;;;;;;15.87;72.08;101609.81;5052220;28;20035;-49
2023/05/16 03:05:18;;;;;;;1.70;0.70;;;;;;;15.68;73.57;101619.75;5052627;28;20065;-49
2023/05/16 03:07:45;;;;;;;2.55;0.60;;;;;;;15.73;73.60;101618.06;5052804;28;20029;-50
2023/05/16 03:10:11;;;;;;;1.35;0.80;;;;;;;15.66;73.75;101620.00;5033817;28;20432;-49
2023/05/16 03:12:37;;;;;;;1.77;0.57;;;;;;;15.50;74.63;101626.72;5042810;28;20064;-46
2023/05/16 03:15:04;;;;;;;1.98;0.85;;;;;;;15.41;74.88;101630.72;5032872;28;20097;-49
2023/05/16 03:17:31;;;;;;;2.65;0.88;;;;;;;15.40;74.82;101634.47;5033002;28;20032;-50
2023/05/16 03:19:57;;;;;;;2.92;0.80;;;;;;;15.44;74.99;101630.31;5058373;28;20173;-49
2023/05/16 03:22:23;;;;;;;2.65;0.80;;;;;;;15.16;76.10;101635.28;5053409;28;20033;-51
2023/05/16 03:24:49;;;;;;;3.13;0.60;;;;;;;15.35;75.71;101628.09;5052972;28;20021;-47
2023/05/16 03:27:15;;;;;;;1.50;0.75;;;;;;;15.23;76.13;101630.66;5052399;28;20029;-46
2023/05/16 03:29:42;;;;;;;2.15;1.08;;;;;;;15.22;76.11;101643.31;5052184;28;20020;-50
2023/05/16 03:32:10;;;;;;;4.03;0.90;;;;;;;15.03;77.08;101646.94;5036211;28;20163;-50
2023/05/16 03:34:37;;;;;;;2.10;1.00;;;;;;;14.98;77.55;101642.19;5032389;28;20573;-50
2023/05/16 03:37:03;;;;;;;4.55;1.00;;;;;;;14.99;77.18;101646.56;5032285;28;20025;-50
2023/05/16 03:39:29;;;;;;;2.33;0.90;;;;;;;14.74;78.47;101645.63;5034442;28;20072;-47
2023/05/16 03:41:56;;;;;;;2.55;1.20;;;;;;;14.78;78.00;101641.47;5051594;28;20029;-48
2023/05/16 03:44:22;;;;;;;1.35;1.00;;;;;;;14.84;77.71;101640.63;5052014;28;20036;-47
2023/05/16 03:46:50;;;;;;;1.77;0.90;;;;;;;14.64;78.39;101637.19;5051358;28;20052;-49
2023/05/16 03:49:16;;;;;;;4.65;1.02;;;;;;;14.48;79.66;101636.59;5051965;28;20115;-48
2023/05/16 03:51:42;;;;;;;2.40;0.90;;;;;;;14.56;79.45;101638.25;5042608;28;20603;-47
2023/05/16 03:54:08;;;;;;;1.48;1.10;;;;;;;14.36;80.59;101635.56;5057732;28;20089;-46
2023/05/16 03:56:35;;;;;;;2.03;1.08;;;;;;;14.30;80.74;101636.44;5060997;28;20033;-47
2023/05/16 03:59:01;;;;;;;2.10;1.17;;;;;;;14.26;81.27;101637.88;5031569;28;20138;-48
2023/05/16 04:01:28;;;;;;;3.22;0.90;;;;;;;14.18;81.79;101646.19;5031724;28;20104;-48
2023/05/16 04:03:54;;;;;;;2.10;1.20;;;;;;;14.29;81.54;101642.03;5040460;28;20040;-48
2023/05/16 04:06:21;;;;;;;1.85;0.77;;;;;;;14.13;82.14;101649.50;5063593;28;20473;-46
2023/05/16 04:08:47;;;;;;;4.53;1.10;;;;;;;14.00;82.78;101649.53;5053723;28;20026;-50
2023/05/16 04:11:13;;;;;;;5.03;1.30;;;;;;;13.83;83.34;101649.13;5035014;28;20377;-49
2023/05/16 04:13:40;;;;;;;2.38;1.13;;;;;;;13.91;83.06;101659.69;5050021;28;20123;-46
2023/05/16 04:16:07;;;;;;;2.47;0.90;;;;;;;13.87;83.22;101669.19;5050861;28;20033;-49
2023/05/16 04:18:33;;;;;;;2.63;1.20;;;;;;;14.04;82.62;101672.28;5050901;28;20163;-49
2023/05/16 04:21:00;;;;;;;1.83;1.00;;;;;;;14.03;nan;101681.41;5050702;28;20032;-49
2023/05/16 04:23:26;;;;;;;3.08;0.85;;;;;;;13.94;83.25;101686.19;5032477;28;20088;-48
2023/05/16 04:25:52;;;;;;;5.57;1.30;;;;;;;13.87;83.52;101696.09;5044524;28;20545;-48
2023/05/16 04:28:19;;;;;;;2.67;0.95;;;;;;;14.09;82.73;101690.50;5049807;28;20048;-50
2023/05/16 04:30:46;;;;;;;3.42;1.08;;;;;;;14.03;82.79;101694.03;5031144;28;20033;-47
2023/05/16 04:33:12;;;;;;;3.72;1.05;;;;;;;13.89;83.83;101694.06;5037784;28;20183;-48
2023/05/16 04:35:39;;;;;;;2.80;1.10;;;;;;;13.85;84.44;101695.50;5037642;28;20033;-47
2023/05/16 04:38:05;;;;;;;3.60;0.90;;;;;;;13.98;83.92;101690.09;5030988;28;20448;-46
2023/05/16 04:40:31;;;;;;;3.75;1.50;;;;;;;14.05;83.65;101683.88;5031045;28;20111;-46
2023/05/16 04:42:58;;;;;;;2.45;1.23;;;;;;;13.91;84.49;101697.34;5031477;28;20398;-48
2023/05/16 04:45:24;;;;;;;3.05;1.30;;;;;;;14.10;83.72;101686.78;5038658;28;20025;-46
2023/05/16 04:47:51;;;;;;;4.13;1.23;;;;;;;14.10;83.77;101682.25;5050873;28;20049;-46
2023/05/16 04:50:17;;;;;;;3.92;1.30;;;;;;;13.87;84.85;101688.03;5050848;28;20028;-48
2023/05/16 04:52:43;;;;;;;3.88;1.48;;;;;;;13.71;85.89;101688.44;5051225;28;20031;-47
2023/05/16 04:55:10;;;;;;;4.78;1.50;;;;;;;13.67;86.31;101692.59;5049092;28;20026;-47
2023/05/16 04:57:36;;;;;;;3.95;1.45;;;;;;;13.74;86.59;101691.56;5051390;28;20024;-50
2023/05/16 05:00:06;;;;;;;2.28;1.30;;;;;;;13.74;86.49;101688.03;5050848;28;20162;-48
2023/05/16 05:02:33;;;;;;;2.90;1.20;;;;;;;13.84;85.94;101684.94;5053205;28;20614;-50
2023/05/16 05:04:59;;;;;;;2.75;1.40;;;;;;;14.02;84.79;101690.53;5054600;28;20021;-47
2023/05/16 05:07:27;;;;;;;5.28;1.85;;;;;;;13.93;84.83;101692.59;5036194;28;20029;-50
2023/05/16 05:09:54;;;;;;;2.17;1.00;;;;;;;13.95;84.77;101700.47;5034309;28;20025;-49
2023/05/16 05:12:21;;;;;;;4.35;1.30;;;;;;;13.49;87.18;101695.84;5034555;28;20025;-49
2023/05/16 05:14:48;;;;;;;3.40;1.33;;;;;;;13.79;85.83;101695.50;5034751;28;20108;-50
2023/05/16 05:17:15;;;;;;;6.93;1.38;;;;;;;13.85;85.35;101706.25;5047778;28;20043;-51
2023/05/16 05:19:41;;;;;;;2.83;1.30;;;;;;;13.76;86.06;101704.78;5054074;28;20084;-47
2023/05/16 05:22:07;;;;;;;5.20;1.48;;;;;;;13.62;87.09;101695.06;5045652;28;20030;-47
2023/05/16 05:24:34;;;;;;;5.28;1.30;;;;;;;13.64;87.06;101698.38;5034295;28;20029;-49
2023/05/16 05:27:01;;;;;;;4.20;1.58;;;;;;;13.64;86.58;101699.19;5042699;28;20390;-49
2023/05/16 05:29:27;;;;;;;3.58;1.77;;;;;;;13.77;86.05;101703.78;5053983;28;20098;-50
2023/05/16 05:31:53;;;;;;;4.47;1.60;;;;;;;13.79;86.21;101701.72;5050296;28;20167;-51
2023/05/16 05:34:19;;;;;;;2.97;1.40;;;;;;;13.81;85.99;101694.25;5054067;28;20025;-51
2023/05/16 05:36:46;;;;;;;3.75;1.40;;;;;;;13.88;85.61;101700.47;5045295;28;20032;-51
2023/05/16 05:39:12;;;;;;;4.03;1.50;;;;;;;13.93;84.89;101697.13;5035832;28;20380;-51
2023/05/16 05:41:38;;;;;;;2.70;1.10;;;;;;;13.86;85.27;101694.44;5053409;28;20104;-47
2023/05/16 05:44:05;;;;;;;3.92;1.45;;;;;;;13.89;85.09;101702.13;5050888;28;20028;-49
2023/05/16 05:46:32;;;;;;;4.30;1.45;;;;;;;14.04;84.50;101696.50;5053006;28;20396;-46
2023/05/16 05:49:00;;;;;;;2.55;1.25;;;;;;;13.97;84.57;101698.38;5053134;28;20473;-49
2023/05/16 05:51:26;;;;;;;4.63;1.40;;;;;;;14.02;84.34;101689.69;5043676;28;20474;-45
2023/05/16 05:53:53;;;;;;;3.83;1.50;;;;;;;14.06;84.21;101686.38;5033423;28;20034;-45
2023/05/16 05:56:20;;;;;;;4.15;1.58;;;;;;;14.18;83.57;101689.28;5045396;28;20059;-47
2023/05/16 05:58:46;;;;;;;1.75;1.30;;;;;;;14.06;83.31;101686.38;5044187;28;20037;-48
2023/05/16 06:01:12;;;;;;;3.00;1.50;;;;;;;13.93;84.66;101692.59;5033997;28;20057;-46
2023/05/16 06:03:39;;;;;;;3.25;1.50;;;;;;;13.96;84.43;101688.66;5034178;28;20108;-49
2023/05/16 06:06:08;;;;;;;3.10;1.33;;;;;;;14.09;83.58;101685.13;5033849;28;20048;-50
2023/05/16 06:08:34;;;;;;;3.40;1.23;;;;;;;13.97;83.67;101693.84;5046417;28;20067;-47
2023/05/16 06:11:00;;;;;;;9.75;1.52;;;;;;;14.02;83.13;101689.69;5042375;28;20053;-49
2023/05/16 06:13:27;;;;;;;2.97;1.40;;;;;;;13.87;83.50;101685.34;5033809;28;20029;-46
2023/05/16 06:15:53;;;;;;;7.75;1.67;;;;;;;13.70;84.48;101690.31;5033313;28;20026;-50
2023/05/16 06:18:20;;;;;;;5.15;1.38;;;;;;;13.76;84.56;101685.97;5033509;28;20026;-49
2023/05/16 06:20:47;;;;;;;5.45;1.50;;;;;;;13.61;84.98;101688.88;5032988;28;20466;-49
2023/05/16 06:23:13;;;;;;;4.82;1.42;;;;;;;13.68;84.61;101689.69;5033525;28;20029;-45
2023/05/16 06:25:39;;;;;;;3.33;0.90;;;;;;;13.77;84.45;101687.63;5042213;28;20115;-48
2023/05/16 06:28:05;;;;;;;3.53;1.50;;;;;;;13.90;83.69;101682.25;5053164;28;20496;-45
2023/05/16 06:30:32;;;;;;;5.55;1.67;;;;;;;13.52;85.16;101684.72;5052818;28;20053;-45
2023/05/16 06:32:58;;;;;;;2.63;1.30;;;;;;;13.71;84.55;101681.22;5033384;28;20079;-47
2023/05/16 06:35:24;;;;;;;3.15;1.23;;;;;;;13.85;83.74;101684.72;5033348;28;20118;-46
2023/05/16 06:37:50;;;;;;;2.00;1.13;;;;;;;13.92;83.64;101682.03;5032927;28;20025;-47
2023/05/16 06:40:17;;;;;;;5.28;1.30;;;;;;;13.83;84.31;101686.81;5032717;28;20030;-45
2023/05/16 06:42:43;;;;;;;2.28;1.40;;;;;;;13.80;84.02;101681.00;5032838;28;20548;-47
2023/05/16 06:45:10;;;;;;;4.03;1.30;;;;;;;13.69;84.72;101679.75;5059326;28;20025;-44
2023/05/16 06:47:36;;;;;;;2.67;1.33;;;;;;;13.46;85.71;101680.97;5052670;28;20580;-45
2023/05/16 06:50:03;;;;;;;1.55;1.20;;;;;;;13.55;85.20;101680.75;5052534;28;20040;-49
2023/05/16 06:52:30;;;;;;;2.53;1.10;;;;;;;13.64;85.36;101682.22;5052253;28;20067;-45
2023/05/16 06:54:56;;;;;;;3.70;1.35;;;;;;;13.31;86.24;101682.19;5052141;28;20025;-45
2023/05/16 06:57:22;;;;;;;4.07;1.60;;;;;;;13.34;86.22;101681.78;5052704;28;20454;-47
2023/05/16 06:59:48;;;;;;;1.67;1.17;;;;;;;13.44;85.84;101677.66;5051832;28;20032;-45
2023/05/16 07:02:15;;;;;;;3.28;1.30;;;;;;;13.62;85.32;101682.44;5047630;28;20035;-47
2023/05/16 07:04:41;;;;;;;3.67;1.60;;;;;;;13.77;84.54;101676.03;5052177;28;20079;-45
2023/05/16 07:07:07;;;;;;;2.90;1.63;;;;;;;13.70;84.69;101667.94;5052077;28;20111;-45
2023/05/16 07:09:34;;;;;;;4.00;1.25;;;;;;;13.54;85.67;101677.25;5032538;28;20056;-46
2023/05/16 07:12:00;;;;;;;2.58;1.38;;;;;;;13.18;87.99;101678.41;5038773;28;20017;-46
2023/05/16 07:14:27;;;;;;;4.45;2.50;;;;;;;12.90;89.67;101678.50;5052069;28;20172;-49
2023/05/16 07:16:53;;;;;;;5.72;1.98;;;;;;;13.10;88.94;101678.59;5052097;28;20105;-45
2023/05/16 07:19:19;;;;;;;2.92;1.55;;;;;;;13.26;88.32;101674.72;5051960;28;20056;-47
2023/05/16 07:21:45;;;;;;;2.65;1.40;;;;;;;13.52;87.27;101681.19;5052212;28;20100;-45
2023/05/16 07:24:12;;;;;;;4.38;1.77;;;;;;;13.59;86.52;101679.31;5044961;28;20219;-46
2023/05/16 07:26:38;;;;;;;5.30;1.45;;;;;;;13.67;85.98;101682.66;5031953;28;20068;-46
2023/05/16 07:29:04;;;;;;;3.28;1.58;;;;;;;13.69;86.19;101677.06;5031878;28;20375;-50
2023/05/16 07:31:31;;;;;;;6.95;1.75;;;;;;;13.90;85.42;101676.03;5031966;28;20056;-48
2023/05/16 07:33:57;;;;;;;4.78;1.65;;;;;;;13.74;85.88;101669.19;5031883;28;20034;-48
2023/05/16 07:36:23;;;;;;;1.58;1.30;;;;;;;13.65;86.52;101675.81;5032031;28;20474;-49
2023/05/16 07:38:49;;;;;;;3.90;1.65;;;;;;;13.85;85.54;101665.91;5031843;28;20032;-49
2023/05/16 07:41:15;;;;;;;2.60;1.33;;;;;;;13.92;85.22;101655.94;5031995;28;20073;-48
2023/05/16 07:43:42;;;;;;;4.97;1.55;;;;;;;13.96;84.49;101659.88;5035830;28;20452;-47
2023/05/16 07:46:08;;;;;;;3.03;1.20;;;;;;;14.09;83.86;101663.59;5058467;28;20709;-49
2023/05/16 07:48:34;;;;;;;3.05;1.40;;;;;;;14.15;83.60;101665.44;5051580;28;20138;-49
2023/05/16 07:51:00;;;;;;;1.67;1.20;;;;;;;14.13;84.10;101667.53;5051675;28;20171;-47
2023/05/16 07:53:27;;;;;;;3.58;1.38;;;;;;;14.06;84.33;101667.53;5033918;28;20508;-49
2023/05/16 07:55:53;;;;;;;4.53;1.35;;;;;;;14.22;83.37;101668.97;5051562;28;20035;-50
2023/05/16 07:58:19;;;;;;;2.90;1.42;;;;;;;14.09;84.50;101663.59;5016440;28;20028;-49
2023/05/16 08:00:46;;;;;;;4.25;1.58;;;;;;;13.97;85.14;101666.91;5051251;28;20052;-45
2023/05/16 08:03:12;;;;;;;9.40;2.78;;;;;;;13.87;86.07;101662.97;5051575;28;20508;-49
2023/05/16 08:05:38;;;;;;;10.18;5.20;;;;;;;13.63;87.69;101661.75;5051542;28;20021;-47
2023/05/16 08:08:05;;;;;;;6.57;5.07;;;;;;;13.66;87.87;101653.28;5051275;28;20017;-48
2023/05/16 08:10:31;;;;;;;4.93;2.92;;;;;;;13.85;87.32;101659.69;5050626;28;20083;-46
2023/05/16 08:12:57;;;;;;;4.95;2.30;;;;;;;13.91;87.10;101659.69;5051395;28;20028;-46
2023/05/16 08:15:26;;;;;;;5.70;2.58;;;;;;;14.09;85.67;101663.59;5051295;28;20020;-50
2023/05/16 08:17:56;;;;;;;7.90;2.45;;;;;;;14.28;84.92;101662.75;5051235;28;20029;-50
2023/05/16 08:20:22;;;;;;;5.70;2.85;;;;;;;14.31;84.44;101659.63;5045212;28;20390;-49
2023/05/16 08:22:48;;;;;;;5.22;2.95;;;;;;;14.38;84.49;101662.28;5031270;28;20026;-47
2023/05/16 08:25:15;;;;;;;5.35;2.33;;;;;;;14.43;83.70;101657.91;5031597;28;20204;-46
2023/05/16 08:27:41;;;;;;;3.10;2.30;;;;;;;14.32;84.08;101661.25;5031437;28;20481;-46
2023/05/16 08:30:10;;;;;;;4.95;2.55;;;;;;;14.33;83.91;101654.88;5031031;28;20025;-48
2023/05/16 08:32:36;;;;;;;5.13;3.17;;;;;;;14.35;83.58;101652.78;5037271;28;20044;-48
2023/05/16 08:35:03;;;;;;;5.22;3.40;;;;;;;14.46;82.99;101657.50;5051258;28;20036;-46
2023/05/16 08:37:29;;;;;;;8.50;3.30;;;;;;;14.48;82.65;101663.53;5053134;28;20025;-46
2023/05/16 08:39:56;;;;;;;5.82;3.55;;;;;;;14.63;82.00;101663.28;5055132;28;20481;-46
2023/05/16 08:42:22;;;;;;;5.78;3.45;;;;;;;14.80;81.21;101663.63;5054885;28;20107;-47
2023/05/16 08:44:48;;;;;;;4.70;3.33;;;;;;;14.65;81.98;101657.69;5068858;28;20028;-46
2023/05/16 08:47:21;;;;;;;7.43;3.95;;;;;;;14.06;84.30;101654.09;5074661;28;20068;-47
2023/05/16 08:49:50;;;;;;;5.10;3.95;;;;;;;14.29;83.65;101652.81;5075065;28;20028;-46
2023/05/16 08:52:20;;;;;;;5.28;3.45;;;;;;;14.68;82.12;101651.88;5074778;28;20028;-48
2023/05/16 08:54:48;;;;;;;4.88;3.35;;;;;;;14.68;81.84;101655.41;5074935;28;20085;-47
2023/05/16 08:57:16;;;;;;;6.15;3.42;;;;;;;14.73;81.55;101652.06;5074796;28;20056;-49
2023/05/16 08:59:43;;;;;;;7.70;4.03;;;;;;;14.78;80.96;101657.66;5074680;28;20025;-47
2023/05/16 09:02:10;;;;;;;9.05;4.35;;;;;;;14.63;81.48;101649.81;5074782;28;20024;-46
2023/05/16 09:04:40;;;;;;;6.72;4.20;;;;;;;14.35;83.05;101647.38;5074752;28;20035;-46
2023/05/16 09:07:06;;;;;;;7.55;4.65;;;;;;;14.37;82.63;101647.16;5074610;28;20074;-47
2023/05/16 09:09:32;;;;;;;6.93;4.88;;;;;;;14.28;83.21;101649.28;5064690;28;20428;-49
2023/05/16 09:11:59;;;;;;;7.28;5.05;;;;;;;14.37;83.33;101656.06;5054620;28;20025;-46
2023/05/16 09:14:25;;;;;;;8.70;6.30;;;;;;;14.55;82.52;101651.91;5054675;28;20056;-49
2023/05/16 09:17:06;;;;;;;13.65;7.10;;;;;;;14.41;82.91;101651.09;5054169;28;20029;-46
2023/05/16 09:19:42;;;;;;;7.95;5.68;;;;;;;14.61;82.23;101651.09;5053736;28;20033;-48
2023/05/16 09:22:13;;;;;;;6.38;5.07;;;;;;;14.61;81.72;101651.91;5051655;28;20029;-46
2023/05/16 09:24:40;;;;;;;8.73;7.15;;;;;;;14.63;81.55;101651.69;5054211;28;20032;-49
2023/05/16 09:27:08;;;;;;;10.32;6.45;;;;;;;14.46;82.39;101654.81;5053950;28;20481;-47
2023/05/16 09:29:35;;;;;;;6.60;5.40;;;;;;;14.59;82.05;101648.59;5053919;28;20079;-46
2023/05/16 09:32:17;;;;;;;11.23;7.25;;;;;;;14.65;81.40;101644.22;5053901;28;20401;-49
2023/05/16 09:34:44;;;;;;;7.07;5.93;;;;;;;14.65;81.34;101644.22;5053967;28;20059;-48
2023/05/16 09:37:11;;;;;;;6.80;6.18;;;;;;;14.73;81.08;101650.19;5054111;28;20056;-46
2023/05/16 09:39:49;;;;;;;8.50;7.60;;;;;;;14.75;81.14;101642.72;5052932;28;20044;-46
2023/05/16 09:42:17;;;;;;;12.20;8.98;;;;;;;14.85;80.60;101641.44;5049993;28;20063;-46
2023/05/16 09:44:52;;;;;;;8.15;6.68;;;;;;;14.76;80.74;101643.53;5044164;28;20021;-49
2023/05/16 09:47:20;;;;;;;11.20;6.20;;;;;;;14.68;81.39;101635.72;5053378;28;20067;-46
2023/05/16 09:49:51;;;;;;;7.53;5.90;;;;;;;14.57;81.74;101636.38;5049431;28;20037;-46
2023/05/16 09:52:18;;;;;;;6.50;4.80;;;;;;;14.71;81.26;101640.66;5053325;28;20031;-46
2023/05/16 09:54:49;;;;;;;11.68;8.50;;;;;;;14.76;80.68;101640.84;5053274;28;20040;-47
2023/05/16 09:57:20;;;;;;;14.43;10.73;;;;;;;14.61;81.41;101635.75;5053659;28;20033;-47
2023/05/16 09:59:47;;;;;;;11.70;10.40;;;;;;;14.56;81.65;101637.44;5053335;28;20064;-47
2023/05/16 10:02:14;;;;;;;15.07;9.82;;;;;;;14.75;80.91;101639.19;5039174;28;20029;-47
2023/05/16 10:04:40;;;;;;;11.73;9.38;;;;;;;14.77;80.70;101639.84;5053017;28;20028;-48
2023/05/16 10:07:08;;;;;;;17.00;10.10;;;;;;;14.49;81.77;101634.72;5053437;28;20060;-46
2023/05/16 10:09:35;;;;;;;11.07;9.75;;;;;;;14.92;80.00;101634.97;5052845;28;20025;-46
2023/05/16 10:12:05;;;;;;;15.88;11.18;;;;;;;14.37;82.07;101626.44;5053415;28;20423;-47
2023/05/16 10:14:36;;;;;;;14.05;11.18;;;;;;;14.55;81.63;101623.13;5047538;28;20022;-50
2023/05/16 10:17:09;;;;;;;15.93;11.48;;;;;;;14.70;80.87;101626.38;5033830;28;20021;-49
2023/05/16 10:19:40;;;;;;;13.65;11.00;;;;;;;14.73;80.74;101622.44;5033047;28;20672;-47
2023/05/16 10:22:07;;;;;;;12.73;10.65;;;;;;;14.92;80.39;101620.66;5033253;28;20034;-46
2023/05/16 10:25:07;;;;;;;11.68;10.27;;;;;;;14.82;80.31;101621.13;5033275;28;20540;-45
2023/05/16 10:27:35;;;;;;;14.35;9.95;;;;;;;14.93;79.79;101622.31;5046011;28;20075;-46
2023/05/16 10:30:01;;;;;;;10.07;7.93;;;;;;;15.10;79.23;101626.16;5052845;28;20025;-46
2023/05/16 10:32:28;;;;;;;11.55;7.95;;;;;;;14.81;79.96;101622.16;5053109;28;20056;-50
2023/05/16 10:34:55;;;;;;;7.88;5.35;;;;;;;15.03;79.26;101617.28;5053132;28;20020;-49
2023/05/16 10:37:23;;;;;;;8.60;6.20;;;;;;;14.87;79.75;101612.41;5057755;28;20016;-48
2023/05/16 10:39:51;;;;;;;9.15;6.32;;;;;;;14.83;79.90;101616.59;5072801;28;20029;-52
2023/05/16 10:42:19;;;;;;;9.13;5.82;;;;;;;14.93;79.49;101604.25;5072785;28;20518;-48
2023/05/16 10:44:45;;;;;;;7.88;6.07;;;;;;;14.82;79.68;101599.56;5072799;28;20025;-46
2023/05/16 10:47:11;;;;;;;9.00;7.60;;;;;;;14.83;79.69;101608.50;5072713;28;20040;-48
2023/05/16 10:49:40;;;;;;;7.95;7.15;;;;;;;14.66;80.63;101600.09;5072474;28;20499;-48
2023/05/16 10:52:12;;;;;;;9.48;8.15;;;;;;;14.69;80.39;101602.34;5072991;28;20550;-51
2023/05/16 10:54:41;;;;;;;8.75;7.85;;;;;;;14.80;79.81;101598.97;5072719;28;20028;-46
2023/05/16 10:57:25;;;;;;;10.38;8.27;;;;;;;14.69;80.73;101594.25;5072628;28;20023;-49
2023/05/16 10:59:52;;;;;;;8.80;6.40;;;;;;;14.85;80.08;101603.72;5071644;28;20046;-45
2023/05/16 11:02:39;;;;;;;8.73;5.82;;;;;;;14.98;79.41;101595.53;5072515;28;20032;-46
2023/05/16 11:05:07;;;;;;;8.77;5.43;;;;;;;14.94;79.23;101602.44;5032663;28;20033;-47
2023/05/16 11:07:38;;;;;;;8.55;5.90;;;;;;;14.70;80.33;101598.59;5032564;28;20029;-45
2023/05/16 11:10:15;;;;;;;9.93;7.13;;;;;;;14.75;79.94;101598.78;5045636;28;20033;-49
2023/05/16 11:12:45;;;;;;;8.77;6.32;;;;;;;14.82;79.52;101599.56;5051818;28;20037;-49
2023/05/16 11:15:24;;;;;;;10.32;7.28;;;;;;;14.63;80.29;101595.09;5052319;28;20107;-48
2023/05/16 11:18:05;;;;;;;9.57;6.97;;;;;;;14.84;79.29;101596.66;5051855;28;20024;-49
2023/05/16 11:20:33;;;;;;;10.20;7.78;;;;;;;14.92;79.23;101605.31;5051175;28;20029;-49
2023/05/16 11:23:18;;;;;;;12.73;9.02;;;;;;;14.68;79.94;101598.00;5052175;28;20079;-46
2023/05/16 11:26:03;;;;;;;11.30;8.48;;;;;;;14.70;80.25;101595.91;5051411;28;20035;-48
2023/05/16 11:28:29;;;;;;;13.48;7.43;;;;;;;14.75;80.08;101599.59;5052104;28;20021;-49